Time;durP1;ratioP1;P1;durP2;ratioP2;P2;SDS_P1;SDS_P2;PMS_P1;PMS_P2;Temp;Humidity;BMP_temperature;BMP_pressure;BME280_temperature;BME280_humidity;BME280_pressure;Samples;Min_cycle;Max_cycle;Signal;HPM_P1;HPM_P2
2021/05/02 00:01:17;;;;;;;4.95;4.33;;;;;;;13.74;70.66;100629.06;1706850;83;21303;-40
2021/05/02 00:03:45;;;;;;;5.25;4.60;;;;;;;13.74;70.86;100624.33;1706608;84;21029;-40
2021/05/02 00:06:13;;;;;;;5.58;4.30;;;;;;;13.74;71.00;100623.86;1706300;84;21007;-40
2021/05/02 00:08:42;;;;;;;10.15;5.17;;;;;;;13.73;71.16;100626.52;1706227;83;20968;-40
2021/05/02 00:11:11;;;;;;;6.33;3.80;;;;;;;13.74;71.30;100629.06;1706238;84;21544;-40
2021/05/02 00:13:40;;;;;;;14.05;11.08;;;;;;;13.77;71.42;100637.24;1706191;82;20999;-40
2021/05/02 00:16:08;;;;;;;11.03;9.88;;;;;;;13.83;71.98;100637.52;1706154;84;21594;-40
2021/05/02 00:18:36;;;;;;;12.75;7.75;;;;;;;13.87;71.92;100643.03;1706262;83;21023;-40
2021/05/02 00:21:09;;;;;;;6.85;5.67;;;;;;;13.90;71.95;100642.94;1706204;84;20999;-40
2021/05/02 00:23:40;;;;;;;10.43;5.35;;;;;;;13.91;71.99;100643.34;1706301;84;21003;-41
2021/05/02 00:26:08;;;;;;;9.18;4.62;;;;;;;13.94;72.10;100654.52;1706253;83;21336;-41
2021/05/02 00:28:40;;;;;;;7.53;4.47;;;;;;;14.01;72.83;100671.25;1706181;84;20956;-41
2021/05/02 00:31:09;;;;;;;8.03;4.33;;;;;;;14.03;71.85;100654.70;1706134;83;21031;-41
2021/05/02 00:33:37;;;;;;;5.80;4.12;;;;;;;14.07;71.75;100642.44;1706131;84;21023;-41
2021/05/02 00:36:05;;;;;;;7.50;4.28;;;;;;;14.09;71.87;100635.43;1706160;82;21370;-41
2021/05/02 00:38:39;;;;;;;7.67;4.00;;;;;;;14.12;71.98;100635.33;1706228;84;21276;-41
2021/05/02 00:41:20;;;;;;;5.85;4.53;;;;;;;14.14;72.14;100627.48;1706124;84;21071;-40
2021/05/02 00:43:58;;;;;;;4.33;3.98;;;;;;;14.08;72.55;100633.30;1704275;84;20991;-40
2021/05/02 00:46:36;;;;;;;11.85;4.75;;;;;;;14.00;72.79;100626.61;1706287;84;21043;-41
2021/05/02 00:49:16;;;;;;;6.40;4.12;;;;;;;13.93;73.22;100635.04;1706258;84;20943;-40
2021/05/02 00:51:55;;;;;;;5.75;4.20;;;;;;;13.86;73.92;100630.92;1706280;84;21378;-41
2021/05/02 00:54:38;;;;;;;13.18;4.75;;;;;;;13.81;74.51;100618.50;1706030;83;21082;-42
2021/05/02 00:57:17;;;;;;;9.48;4.50;;;;;;;13.76;75.26;100616.86;1705976;83;21055;-41
2021/05/02 00:59:58;;;;;;;8.53;4.72;;;;;;;13.66;76.02;100598.53;1705645;83;21079;-42
2021/05/02 01:02:28;;;;;;;6.50;5.42;;;;;;;13.44;77.90;100591.34;1695348;83;21046;-42
2021/05/02 01:04:58;;;;;;;10.65;5.67;;;;;;;13.22;78.95;100594.96;1706208;83;21417;-42
2021/05/02 01:07:29;;;;;;;9.15;5.20;;;;;;;13.07;79.71;100589.27;1706132;84;21074;-41
2021/05/02 01:10:03;;;;;;;7.83;5.50;;;;;;;12.96;80.53;100578.75;1706307;84;21616;-42
2021/05/02 01:12:31;;;;;;;10.72;5.65;;;;;;;12.86;81.62;100584.63;1706303;83;21023;-42
2021/05/02 01:14:59;;;;;;;11.35;5.22;;;;;;;12.79;82.40;100582.20;1706266;84;21066;-42
2021/05/02 01:17:27;;;;;;;7.78;5.78;;;;;;;12.74;82.90;100579.30;1706195;84;21373;-42
2021/05/02 01:19:55;;;;;;;10.50;5.90;;;;;;;12.71;83.39;100579.39;1706137;84;20936;-42
2021/05/02 01:22:22;;;;;;;7.45;5.30;;;;;;;12.69;83.83;100575.98;1706192;84;21023;-41
2021/05/02 01:24:52;;;;;;;12.45;6.20;;;;;;;12.66;84.29;100563.95;1706190;84;21062;-42
2021/05/02 01:27:30;;;;;;;8.53;5.47;;;;;;;12.63;84.55;100560.97;1706312;84;21011;-42
2021/05/02 01:29:59;;;;;;;6.40;5.53;;;;;;;12.61;84.63;100561.88;1706253;84;22259;-41
2021/05/02 01:32:27;;;;;;;8.83;5.47;;;;;;;12.58;84.87;100555.05;1706113;84;21035;-42
2021/05/02 01:34:56;;;;;;;6.95;5.83;;;;;;;12.51;85.48;100554.80;1706209;82;21626;-42
2021/05/02 01:37:24;;;;;;;14.60;5.10;;;;;;;12.47;86.10;100558.34;1706221;83;20962;-42
2021/05/02 01:39:52;;;;;;;5.97;5.45;;;;;;;12.43;86.42;100547.62;1706223;84;20904;-42
2021/05/02 01:42:19;;;;;;;8.18;5.70;;;;;;;12.40;86.68;100550.30;1706259;83;21454;-41
2021/05/02 01:44:47;;;;;;;6.60;5.37;;;;;;;12.36;86.88;100550.38;1706135;84;21133;-42
2021/05/02 01:47:19;;;;;;;11.03;5.20;;;;;;;12.32;87.05;100551.78;1706194;84;21003;-41
2021/05/02 01:50:03;;;;;;;9.25;5.65;;;;;;;12.29;87.17;100551.42;1706114;82;21083;-42
2021/05/02 01:52:34;;;;;;;14.68;6.28;;;;;;;12.26;87.27;100554.09;1706142;84;21578;-42
2021/05/02 01:55:04;;;;;;;17.23;6.42;;;;;;;12.19;87.39;100546.03;1706217;84;22262;-42
2021/05/02 01:57:32;;;;;;;20.50;7.72;;;;;;;12.15;87.44;100551.76;1706133;83;21027;-42
2021/05/02 02:00:07;;;;;;;18.37;6.85;;;;;;;12.12;87.48;100551.80;1706196;84;20972;-42
2021/05/02 02:02:34;;;;;;;9.03;6.17;;;;;;;12.07;87.55;100552.36;1706440;83;20948;-42
2021/05/02 02:05:03;;;;;;;14.30;6.65;;;;;;;12.02;87.68;100553.78;1706160;84;20963;-42
2021/05/02 02:07:33;;;;;;;13.83;6.62;;;;;;;11.99;87.90;100562.87;1706249;83;21588;-42
2021/05/02 02:10:00;;;;;;;12.68;6.97;;;;;;;11.96;88.02;100566.84;1706105;83;21042;-42
2021/05/02 02:12:28;;;;;;;12.25;7.37;;;;;;;11.95;88.22;100565.59;1706175;83;21011;-42
2021/05/02 02:14:55;;;;;;;11.80;6.92;;;;;;;11.93;88.48;100569.50;1663347;84;21090;-42
2021/05/02 02:17:23;;;;;;;8.23;7.10;;;;;;;11.94;88.71;100571.20;1706169;84;20991;-41
2021/05/02 02:19:52;;;;;;;12.40;7.60;;;;;;;11.96;88.89;100569.43;1706191;83;21399;-41
2021/05/02 02:22:20;;;;;;;11.73;6.87;;;;;;;11.96;88.89;100555.63;1706080;84;21018;-41
2021/05/02 02:24:56;;;;;;;13.80;7.10;;;;;;;11.95;88.96;100561.23;1706152;84;21026;-42
2021/05/02 02:27:28;;;;;;;15.80;8.48;;;;;;;11.95;89.10;100558.64;1706241;84;20995;-42
2021/05/02 02:30:05;;;;;;;13.85;7.92;;;;;;;11.93;89.22;100550.05;1706252;84;21334;-42
2021/05/02 02:32:36;;;;;;;14.07;7.85;;;;;;;11.94;89.30;100542.67;1706090;84;21383;-41
2021/05/02 02:35:06;;;;;;;16.93;8.00;;;;;;;11.92;89.36;100544.02;1685732;84;20968;-42
2021/05/02 02:37:34;;;;;;;20.82;9.63;;;;;;;11.90;89.44;100552.28;1686388;84;21560;-42
2021/05/02 02:40:05;;;;;;;34.90;9.38;;;;;;;11.88;89.51;100546.28;1663692;84;20952;-41
2021/05/02 02:42:35;;;;;;;21.57;8.45;;;;;;;11.88;89.66;100544.98;1706179;84;21039;-42
2021/05/02 02:45:06;;;;;;;29.25;8.98;;;;;;;11.89;89.75;100542.80;1706221;84;22281;-41
2021/05/02 02:47:48;;;;;;;34.67;9.50;;;;;;;11.88;89.85;100545.41;1706156;83;20966;-41
2021/05/02 02:50:19;;;;;;;27.27;9.00;;;;;;;11.88;89.95;100547.58;1706143;84;21027;-42
2021/05/02 02:52:51;;;;;;;20.97;9.20;;;;;;;11.89;90.03;100550.58;1706153;84;21085;-42
2021/05/02 02:55:26;;;;;;;21.80;8.58;;;;;;;11.92;90.17;100549.64;1719559;83;21022;-42
2021/05/02 02:58:02;;;;;;;18.07;8.40;;;;;;;11.95;90.25;100546.97;1719813;83;21387;-42
2021/05/02 03:00:35;;;;;;;22.05;8.00;;;;;;;11.99;90.37;100539.52;1719731;83;20998;-42
2021/05/02 03:03:13;;;;;;;20.25;8.20;;;;;;;12.05;90.47;100539.87;1719724;83;21358;-42
2021/05/02 03:05:42;;;;;;;12.68;7.45;;;;;;;12.13;90.50;100535.80;1719632;83;21010;-42
2021/05/02 03:08:10;;;;;;;12.33;8.50;;;;;;;12.18;90.70;100531.34;1670597;83;21607;-42
2021/05/02 03:10:41;;;;;;;15.05;7.47;;;;;;;12.25;90.79;100532.93;1719678;83;21384;-42
2021/05/02 03:13:11;;;;;;;12.40;8.38;;;;;;;12.32;90.82;100533.61;1719561;83;21116;-42
2021/05/02 03:15:40;;;;;;;11.18;7.60;;;;;;;12.38;90.89;100536.51;1719677;83;21556;-42
2021/05/02 03:18:39;;;;;;;14.80;8.45;;;;;;;12.43;90.86;100536.81;1719603;83;21026;-42
2021/05/02 03:21:08;;;;;;;15.32;8.35;;;;;;;12.50;90.88;100534.45;1719690;83;21133;-42
2021/05/02 03:23:42;;;;;;;14.28;8.60;;;;;;;12.59;90.96;100531.21;1719754;83;22247;-42
2021/05/02 03:26:11;;;;;;;11.85;8.38;;;;;;;12.65;90.99;100529.31;1719189;83;21043;-41
2021/05/02 03:28:54;;;;;;;14.68;7.80;;;;;;;12.74;90.99;100528.23;1719657;83;21623;-42
2021/05/02 03:31:31;;;;;;;14.18;9.03;;;;;;;12.83;90.99;100532.77;1695367;83;20959;-41
2021/05/02 03:34:04;;;;;;;15.08;8.25;;;;;;;12.91;90.95;100540.77;1719722;83;21519;-41
2021/05/02 03:36:49;;;;;;;13.58;8.58;;;;;;;12.99;90.91;100535.36;1719333;82;21393;-42
2021/05/02 03:39:16;;;;;;;15.38;9.40;;;;;;;13.07;90.84;100533.40;1719595;83;21050;-41
2021/05/02 03:41:44;;;;;;;17.27;9.35;;;;;;;13.16;90.74;100535.36;1719902;83;20938;-42
2021/05/02 03:44:11;;;;;;;17.10;9.60;;;;;;;13.26;90.64;100531.59;1719778;82;21061;-41
2021/05/02 03:46:39;;;;;;;20.65;8.68;;;;;;;13.34;90.43;100523.58;1719827;83;20967;-41
2021/05/02 03:49:08;;;;;;;13.72;8.83;;;;;;;13.43;90.35;100529.83;1719777;83;21373;-41
2021/05/02 03:51:38;;;;;;;15.55;8.58;;;;;;;13.54;90.28;100535.19;1719798;83;20965;-41
2021/05/02 03:54:06;;;;;;;21.02;9.15;;;;;;;13.66;90.11;100536.11;1714929;83;21503;-41
2021/05/02 03:56:43;;;;;;;19.30;10.00;;;;;;;13.77;89.91;100537.95;1706320;84;21269;-41
2021/05/02 03:59:20;;;;;;;19.42;10.25;;;;;;;13.87;89.68;100540.26;1706261;83;21007;-42
2021/05/02 04:01:54;;;;;;;22.85;10.88;;;;;;;13.94;89.44;100541.33;1706272;84;21201;-42
2021/05/02 04:04:27;;;;;;;17.77;9.58;;;;;;;13.99;89.12;100539.86;1706303;84;21513;-42
2021/05/02 04:07:06;;;;;;;24.67;9.38;;;;;;;14.04;88.84;100540.59;1706265;84;21023;-42
2021/05/02 04:09:35;;;;;;;16.73;10.68;;;;;;;14.12;88.70;100547.30;1706346;83;21640;-42
2021/05/02 04:12:05;;;;;;;25.90;11.00;;;;;;;14.21;88.53;100550.90;1706256;84;21034;-42
2021/05/02 04:14:32;;;;;;;19.55;11.35;;;;;;;14.28;88.28;100552.42;1706280;84;21348;-42
2021/05/02 04:17:05;;;;;;;19.45;11.97;;;;;;;14.33;87.98;100544.01;1706226;84;21963;-43
2021/05/02 04:19:37;;;;;;;15.70;11.12;;;;;;;14.39;87.57;100553.34;1706199;83;20952;-42
2021/05/02 04:22:05;;;;;;;22.98;11.53;;;;;;;14.41;87.32;100553.31;1706242;83;20900;-42
2021/05/02 04:24:33;;;;;;;21.12;10.93;;;;;;;14.41;87.04;100558.09;1686721;84;21077;-42
2021/05/02 04:27:02;;;;;;;19.05;12.25;;;;;;;14.42;86.83;100551.11;1706200;83;21371;-42
2021/05/02 04:29:31;;;;;;;21.10;12.13;;;;;;;14.42;86.67;100547.20;1706121;84;21030;-42
2021/05/02 04:32:00;;;;;;;28.27;11.78;;;;;;;14.44;86.44;100551.91;1706227;84;21003;-42
2021/05/02 04:34:28;;;;;;;19.98;11.85;;;;;;;14.49;86.41;100548.26;1706104;82;20987;-42
2021/05/02 04:36:57;;;;;;;21.15;11.60;;;;;;;14.55;86.28;100545.04;1706349;84;21007;-42
2021/05/02 04:39:25;;;;;;;17.15;11.28;;;;;;;14.61;86.20;100551.34;1706286;84;21393;-43
2021/05/02 04:41:53;;;;;;;19.70;10.85;;;;;;;14.68;86.03;100546.78;1706187;83;21118;-42
2021/05/02 04:44:21;;;;;;;28.62;13.98;;;;;;;14.74;85.78;100547.89;1706240;84;21054;-43
2021/05/02 04:46:49;;;;;;;27.65;12.73;;;;;;;14.78;85.57;100538.63;1706201;83;20995;-42
2021/05/02 04:49:17;;;;;;;19.62;12.23;;;;;;;14.87;85.58;100543.98;1706263;84;21026;-42
2021/05/02 04:51:45;;;;;;;22.13;12.70;;;;;;;14.99;85.52;100541.39;1706224;84;21362;-42
2021/05/02 04:54:12;;;;;;;18.20;11.50;;;;;;;15.13;85.11;100539.59;1706083;83;21048;-42
2021/05/02 04:56:40;;;;;;;19.98;12.68;;;;;;;15.28;85.00;100534.27;1706197;84;21079;-43
2021/05/02 04:59:08;;;;;;;27.95;12.47;;;;;;;15.47;84.67;100533.59;1706208;84;20999;-42
2021/05/02 05:01:38;;;;;;;24.15;13.53;;;;;;;15.66;84.42;100525.46;1706236;84;21015;-43
2021/05/02 05:04:06;;;;;;;28.47;12.73;;;;;;;15.89;83.89;100522.88;1706166;83;21328;-42
2021/05/02 05:06:35;;;;;;;24.00;12.33;;;;;;;16.07;83.21;100514.77;1706146;84;21070;-43
2021/05/02 05:09:06;;;;;;;20.62;12.78;;;;;;;16.27;82.41;100514.41;1706180;83;21057;-42
2021/05/02 05:11:34;;;;;;;23.30;13.32;;;;;;;16.41;81.81;100503.39;1706190;83;20940;-42
2021/05/02 05:14:02;;;;;;;21.73;13.10;;;;;;;16.59;81.50;100500.00;1706180;84;21058;-42
2021/05/02 05:16:30;;;;;;;27.30;12.90;;;;;;;16.75;80.58;100502.80;1706228;84;21654;-42
2021/05/02 05:18:58;;;;;;;24.15;13.28;;;;;;;16.88;79.88;100497.87;1706151;84;20999;-43
2021/05/02 05:21:26;;;;;;;26.20;13.60;;;;;;;17.03;79.37;100500.30;1706217;84;21047;-43
2021/05/02 05:23:54;;;;;;;27.75;15.80;;;;;;;17.13;78.77;100496.81;1706221;84;20999;-43
2021/05/02 05:26:22;;;;;;;28.47;15.48;;;;;;;17.20;78.28;100496.91;1706266;84;21090;-42
2021/05/02 05:28:49;;;;;;;33.05;16.57;;;;;;;17.30;77.93;100497.78;1706185;84;21408;-42
2021/05/02 05:31:17;;;;;;;30.35;15.68;;;;;;;17.44;77.63;100496.70;1706164;84;21062;-42
2021/05/02 05:33:45;;;;;;;32.78;17.05;;;;;;;17.57;76.75;100489.60;1706183;84;20936;-42
2021/05/02 05:36:14;;;;;;;32.98;16.70;;;;;;;17.67;76.18;100484.30;1706104;82;21118;-42
2021/05/02 05:38:42;;;;;;;38.53;19.73;;;;;;;17.74;75.83;100489.62;1706193;84;21008;-42
2021/05/02 05:41:10;;;;;;;35.03;17.62;;;;;;;17.85;74.98;100483.04;1706184;84;21281;-42
2021/05/02 05:43:38;;;;;;;31.17;17.17;;;;;;;17.92;74.15;100480.50;1706144;84;20971;-42
2021/05/02 05:46:07;;;;;;;30.30;16.50;;;;;;;18.00;73.88;100479.66;1706135;83;21074;-43
2021/05/02 05:48:35;;;;;;;28.73;16.45;;;;;;;18.08;73.53;100482.80;1706166;84;21054;-43
2021/05/02 05:51:05;;;;;;;30.15;15.70;;;;;;;18.23;73.23;100479.88;1706184;84;20959;-43
2021/05/02 05:53:35;;;;;;;23.35;13.98;;;;;;;18.52;72.40;100485.40;1706086;83;21142;-43
2021/05/02 05:56:04;;;;;;;24.72;13.93;;;;;;;18.88;72.05;100484.87;1706017;83;21564;-43
2021/05/02 05:58:32;;;;;;;22.75;12.40;;;;;;;19.22;70.40;100484.87;1706199;84;21039;-43
2021/05/02 06:01:00;;;;;;;26.23;11.08;;;;;;;19.53;68.95;100472.20;1706117;83;21599;-43
2021/05/02 06:03:28;;;;;;;15.38;9.48;;;;;;;19.75;65.80;100476.73;1706150;84;21011;-43
2021/05/02 06:05:55;;;;;;;19.75;8.75;;;;;;;19.88;64.16;100484.75;1706166;83;21429;-43
2021/05/02 06:08:23;;;;;;;18.95;8.55;;;;;;;19.94;63.60;100483.94;1706080;84;21023;-43
2021/05/02 06:10:53;;;;;;;22.25;8.73;;;;;;;19.97;62.64;100489.50;1706106;83;20939;-43
2021/05/02 06:13:20;;;;;;;19.67;8.60;;;;;;;19.85;62.65;100476.56;1706148;83;21344;-42
2021/05/02 06:15:48;;;;;;;15.15;8.25;;;;;;;19.70;62.81;100476.12;1706200;84;21063;-43
2021/05/02 06:18:15;;;;;;;16.48;8.50;;;;;;;19.60;63.45;100475.33;1706139;83;21375;-43
2021/05/02 06:20:43;;;;;;;16.62;7.17;;;;;;;19.56;64.26;100475.13;1706086;84;21324;-43
2021/05/02 06:23:11;;;;;;;14.10;7.40;;;;;;;19.57;64.10;100472.88;1706170;84;20983;-43
2021/05/02 06:25:38;;;;;;;18.12;6.78;;;;;;;19.61;63.83;100476.19;1706140;84;21007;-43
2021/05/02 06:28:06;;;;;;;12.25;6.40;;;;;;;19.72;64.01;100476.42;1706174;84;21078;-43
2021/05/02 06:30:34;;;;;;;15.78;6.12;;;;;;;19.90;63.24;100482.40;1706134;84;21373;-43
2021/05/02 06:33:02;;;;;;;10.15;6.28;;;;;;;20.01;62.82;100478.36;1706083;83;21075;-43
2021/05/02 06:35:30;;;;;;;11.53;5.95;;;;;;;20.22;63.25;100477.56;1706178;82;21501;-42
2021/05/02 06:37:58;;;;;;;12.95;6.25;;;;;;;20.38;61.86;100478.81;1706127;83;21027;-42
2021/05/02 06:40:26;;;;;;;11.35;6.62;;;;;;;20.47;61.44;100477.42;1706066;84;21030;-43
2021/05/02 06:42:53;;;;;;;17.65;6.00;;;;;;;20.54;61.33;100482.68;1706114;84;21382;-43
2021/05/02 06:45:21;;;;;;;11.48;5.17;;;;;;;20.60;60.52;100474.45;1706053;84;21098;-42
2021/05/02 06:47:48;;;;;;;8.23;5.33;;;;;;;20.58;60.92;100471.03;1706139;84;21329;-42
2021/05/02 06:50:17;;;;;;;11.88;4.25;;;;;;;20.59;61.39;100477.16;1706106;82;21041;-42
2021/05/02 06:52:45;;;;;;;8.10;4.45;;;;;;;20.58;60.01;100467.58;1706138;84;21083;-43
2021/05/02 06:55:13;;;;;;;14.53;4.35;;;;;;;20.64;60.63;100468.52;1706078;83;21371;-43
2021/05/02 06:57:40;;;;;;;15.50;4.97;;;;;;;20.84;60.37;100478.33;1706086;84;21043;-43
2021/05/02 07:00:10;;;;;;;13.60;4.17;;;;;;;21.05;59.08;100478.31;1706157;84;21007;-43
2021/05/02 07:02:37;;;;;;;7.15;4.00;;;;;;;21.17;58.10;100480.66;1706096;84;21030;-42
2021/05/02 07:05:07;;;;;;;6.90;4.20;;;;;;;21.13;58.13;100484.87;1706129;84;20985;-43
2021/05/02 07:07:35;;;;;;;8.23;4.10;;;;;;;21.12;58.06;100480.10;1706145;84;21207;-42
2021/05/02 07:10:05;;;;;;;5.60;3.70;;;;;;;21.24;58.17;100483.75;1706061;84;21031;-42
2021/05/02 07:12:33;;;;;;;12.30;4.65;;;;;;;21.57;57.58;100482.99;1706125;84;20945;-43
2021/05/02 07:15:03;;;;;;;19.15;4.47;;;;;;;21.80;57.46;100481.05;1706071;84;20951;-42
2021/05/02 07:17:31;;;;;;;9.93;4.25;;;;;;;21.96;57.50;100472.98;1706282;84;21027;-43
2021/05/02 07:19:59;;;;;;;5.67;4.20;;;;;;;22.07;57.11;100467.00;1706278;84;21442;-43
2021/05/02 07:22:28;;;;;;;12.37;4.17;;;;;;;22.08;55.80;100468.69;1706271;84;21043;-43
2021/05/02 07:24:57;;;;;;;8.68;3.58;;;;;;;21.99;56.45;100474.58;1706245;84;21519;-43
2021/05/02 07:27:25;;;;;;;4.42;3.70;;;;;;;21.89;56.85;100468.25;1706241;84;20955;-42
2021/05/02 07:29:53;;;;;;;8.85;3.42;;;;;;;21.86;56.59;100469.77;1706294;84;21039;-42
2021/05/02 07:32:20;;;;;;;14.07;3.65;;;;;;;21.85;56.43;100466.73;1706325;83;21206;-43
2021/05/02 07:34:48;;;;;;;7.25;3.33;;;;;;;21.92;55.95;100470.67;1706148;82;21023;-43
2021/05/02 07:37:17;;;;;;;16.02;3.67;;;;;;;21.92;55.53;100465.41;1706246;84;20940;-43
2021/05/02 07:39:45;;;;;;;5.53;3.62;;;;;;;21.94;55.28;100458.24;1706208;84;21572;-42
2021/05/02 07:42:13;;;;;;;6.70;3.70;;;;;;;22.05;55.20;100460.16;1706228;84;21040;-43
2021/05/02 07:44:40;;;;;;;5.15;3.33;;;;;;;22.24;55.43;100452.71;1706220;83;21367;-43
2021/05/02 07:47:08;;;;;;;4.55;3.45;;;;;;;22.40;54.32;100451.64;1706200;84;21018;-43
2021/05/02 07:49:37;;;;;;;5.30;3.33;;;;;;;22.61;53.91;100452.47;1706219;83;20991;-43
2021/05/02 07:52:04;;;;;;;9.50;3.15;;;;;;;22.81;52.97;100444.47;1706267;83;21015;-43
2021/05/02 07:54:32;;;;;;;8.70;3.27;;;;;;;22.91;52.29;100444.21;1706172;84;20940;-43
2021/05/02 07:56:59;;;;;;;8.08;3.10;;;;;;;23.00;52.51;100440.54;1706226;84;21357;-43
2021/05/02 07:59:27;;;;;;;6.97;2.95;;;;;;;23.23;51.52;100438.88;1706229;84;21026;-43
2021/05/02 08:01:55;;;;;;;6.28;2.80;;;;;;;23.56;51.04;100432.14;1706321;83;21074;-43
2021/05/02 08:04:23;;;;;;;5.12;3.08;;;;;;;23.87;50.94;100447.02;1706305;84;21031;-43
2021/05/02 08:06:51;;;;;;;8.33;3.12;;;;;;;24.10;49.69;100444.48;1706259;84;21011;-43
2021/05/02 08:09:19;;;;;;;5.67;2.77;;;;;;;24.32;48.01;100426.48;1706245;84;21254;-43
2021/05/02 08:11:47;;;;;;;9.55;2.90;;;;;;;24.45;47.08;100434.80;1706147;84;21043;-43
2021/05/02 08:14:15;;;;;;;16.48;3.05;;;;;;;24.42;47.41;100435.04;1706254;84;21062;-44
2021/05/02 08:16:42;;;;;;;7.58;3.20;;;;;;;24.41;47.13;100426.75;1706300;84;21066;-43
2021/05/02 08:19:10;;;;;;;8.58;2.60;;;;;;;24.28;46.38;100429.50;1706241;84;21046;-43
2021/05/02 08:21:38;;;;;;;12.25;3.10;;;;;;;24.11;46.51;100422.37;1706251;84;21365;-43
2021/05/02 08:24:07;;;;;;;10.68;2.70;;;;;;;23.94;46.54;100426.27;1706168;84;21352;-42
2021/05/02 08:26:35;;;;;;;8.68;2.60;;;;;;;23.76;46.79;100413.97;1706159;82;21110;-43
2021/05/02 08:29:03;;;;;;;7.15;3.20;;;;;;;23.61;46.16;100420.75;1706159;82;20956;-43
2021/05/02 08:31:31;;;;;;;9.13;2.58;;;;;;;23.54;47.10;100416.88;1706359;84;21608;-44
2021/05/02 08:33:59;;;;;;;10.32;2.83;;;;;;;23.61;47.14;100415.92;1706231;83;21366;-44
2021/05/02 08:36:27;;;;;;;4.85;1.87;;;;;;;23.52;46.36;100414.84;1706171;82;21026;-42
2021/05/02 08:38:56;;;;;;;5.62;2.58;;;;;;;23.37;46.24;100420.28;1705987;84;21011;-41
2021/05/02 08:41:24;;;;;;;12.88;2.50;;;;;;;23.33;47.35;100415.32;1705915;84;20900;-42
2021/05/02 08:43:55;;;;;;;4.17;2.17;;;;;;;23.29;46.72;100412.55;1705188;82;20967;-42
2021/05/02 08:46:24;;;;;;;5.90;2.33;;;;;;;23.14;46.76;100407.41;1683010;84;21359;-42
2021/05/02 08:48:52;;;;;;;6.60;3.12;;;;;;;23.01;47.79;100404.81;1676299;85;21078;-41
2021/05/02 08:51:20;;;;;;;6.70;3.30;;;;;;;23.08;47.99;100405.20;1632029;88;21056;-43
2021/05/02 08:53:48;;;;;;;5.62;2.40;;;;;;;23.19;47.39;100402.63;1676227;85;21023;-43
2021/05/02 08:56:15;;;;;;;18.82;16.82;;;;;;;23.31;46.70;100398.75;1678075;84;20960;-43
2021/05/02 08:58:43;;;;;;;4.58;3.77;;;;;;;23.48;47.11;100399.69;1688323;84;21372;-42
2021/05/02 09:01:11;;;;;;;9.90;4.80;;;;;;;23.60;46.09;100401.03;1691334;84;21207;-42
2021/05/02 09:03:44;;;;;;;12.00;4.80;;;;;;;23.74;47.02;100393.39;1632432;87;21023;-42
2021/05/02 09:06:24;;;;;;;4.22;3.08;;;;;;;24.05;45.52;100385.84;1691218;83;21320;-42
2021/05/02 09:08:57;;;;;;;13.38;6.47;;;;;;;24.06;45.11;100398.09;1704450;84;20983;-43
2021/05/02 09:11:36;;;;;;;7.28;3.80;;;;;;;23.92;45.55;100403.91;1676514;84;21439;-42
2021/05/02 09:14:11;;;;;;;4.25;2.90;;;;;;;23.66;46.09;100400.11;1687900;84;21560;-42
2021/05/02 09:16:59;;;;;;;12.15;7.03;;;;;;;23.29;47.22;100408.59;1632150;86;21137;-43
2021/05/02 09:19:32;;;;;;;14.95;9.35;;;;;;;22.99;47.74;100412.46;1676094;85;21129;-42
2021/05/02 09:22:13;;;;;;;10.13;7.17;;;;;;;22.57;48.51;100418.86;1681535;84;21114;-43
2021/05/02 09:24:41;;;;;;;10.03;5.90;;;;;;;22.15;49.53;100419.55;1704987;84;21315;-42
2021/05/02 09:27:15;;;;;;;4.90;2.95;;;;;;;21.74;50.69;100426.16;1701793;84;21567;-42
2021/05/02 09:29:45;;;;;;;6.65;2.77;;;;;;;21.50;51.33;100428.59;1689127;84;21533;-43
2021/05/02 09:32:15;;;;;;;8.10;2.70;;;;;;;21.33;52.46;100425.70;1689312;84;21623;-42
2021/05/02 09:34:53;;;;;;;7.47;2.72;;;;;;;21.19;53.08;100426.13;1702446;84;21557;-43
2021/05/02 09:37:24;;;;;;;4.58;2.80;;;;;;;21.06;53.73;100425.20;1697452;84;22262;-43
2021/05/02 09:39:55;;;;;;;5.08;2.22;;;;;;;20.91;54.19;100426.56;1675622;84;21129;-43
2021/05/02 09:42:39;;;;;;;8.28;2.90;;;;;;;20.85;54.57;100429.59;1702914;84;21038;-43
2021/05/02 09:45:09;;;;;;;10.20;6.78;;;;;;;20.83;54.58;100418.77;1680971;84;21078;-42
2021/05/02 09:47:44;;;;;;;7.33;4.12;;;;;;;20.82;55.00;100416.59;1632320;87;21079;-42
2021/05/02 09:50:20;;;;;;;8.45;4.83;;;;;;;20.81;55.28;100410.96;1659750;84;22126;-43
2021/05/02 09:53:02;;;;;;;7.60;4.65;;;;;;;20.80;55.33;100413.22;1667743;85;21016;-42
2021/05/02 09:55:39;;;;;;;6.70;4.08;;;;;;;20.78;55.32;100408.04;1667756;84;21585;-42
2021/05/02 09:58:19;;;;;;;7.97;4.42;;;;;;;20.73;55.54;100406.63;1667399;86;21096;-42
2021/05/02 10:00:56;;;;;;;7.78;3.20;;;;;;;20.72;56.41;100407.11;1711482;83;21034;-43
2021/05/02 10:03:28;;;;;;;3.98;2.47;;;;;;;20.72;56.64;100411.52;1711087;82;21354;-43
2021/05/02 10:08:43;;;;;;;8.35;2.55;;;;;;;20.75;56.73;100411.32;1879924;76;22810;-42
2021/05/02 10:11:12;;;;;;;3.08;2.62;;;;;;;20.71;56.69;100413.77;1849659;77;20916;-42
2021/05/02 10:13:40;;;;;;;8.60;3.02;;;;;;;20.74;56.72;100417.06;1781346;79;21191;-42
2021/05/02 10:16:10;;;;;;;5.78;2.90;;;;;;;20.77;56.82;100416.02;1779091;80;21586;-42
2021/05/02 10:18:38;;;;;;;10.95;5.35;;;;;;;20.80;56.47;100411.45;1790501;79;20943;-42
2021/05/02 10:21:07;;;;;;;8.38;4.83;;;;;;;20.80;56.55;100406.19;1790537;80;21033;-43
2021/05/02 10:23:37;;;;;;;5.28;3.77;;;;;;;20.85;56.75;100408.54;1778454;80;21026;-41
2021/05/02 10:26:06;;;;;;;7.53;3.37;;;;;;;20.90;56.62;100400.34;1789851;79;21284;-42
2021/05/02 10:28:35;;;;;;;7.60;3.55;;;;;;;20.99;56.73;100398.92;1785667;79;21046;-42
2021/05/02 10:31:05;;;;;;;4.83;3.75;;;;;;;21.07;56.55;100401.90;1784429;80;21149;-43
2021/05/02 10:33:38;;;;;;;9.40;5.30;;;;;;;21.19;56.92;100400.27;1790933;79;21031;-42
2021/05/02 10:36:07;;;;;;;6.17;3.33;;;;;;;21.32;57.04;100401.64;1778634;80;21614;-41
2021/05/02 10:38:50;;;;;;;7.97;3.85;;;;;;;21.40;56.55;100396.75;1745388;81;21334;-42
2021/05/02 10:41:34;;;;;;;5.12;4.45;;;;;;;21.48;56.31;100395.77;1755982;81;21068;-43
2021/05/02 10:44:16;;;;;;;7.03;4.85;;;;;;;21.47;56.45;100395.39;1763412;81;21518;-43
2021/05/02 10:46:50;;;;;;;11.68;3.35;;;;;;;21.38;55.79;100390.74;1737370;81;21479;-42
2021/05/02 10:49:26;;;;;;;15.15;6.35;;;;;;;21.17;55.57;100382.42;1740163;81;21598;-42
2021/05/02 10:51:57;;;;;;;39.70;29.15;;;;;;;21.04;55.87;100387.62;1742193;81;21050;-43
2021/05/02 10:54:43;;;;;;;37.00;25.60;;;;;;;20.96;56.28;100386.34;1752039;81;21002;-43
2021/05/02 10:57:35;;;;;;;36.55;22.02;;;;;;;20.97;56.34;100388.52;1753033;81;21002;-42
2021/05/02 11:00:11;;;;;;;15.25;10.35;;;;;;;21.03;56.74;100382.85;1750771;81;21117;-41
2021/05/02 11:02:44;;;;;;;19.02;15.13;;;;;;;21.19;56.73;100382.71;1753004;81;20981;-42
2021/05/02 11:05:15;;;;;;;26.90;18.98;;;;;;;21.30;56.23;100375.89;1745634;81;21390;-42
2021/05/02 11:07:44;;;;;;;42.45;27.17;;;;;;;21.38;55.62;100377.58;1751315;81;21029;-43
2021/05/02 11:12:06;;;;;;;7.35;5.00;;;;;;;21.52;53.34;100370.09;1776960;79;22546;-43
2021/05/02 11:14:34;;;;;;;4.00;3.00;;;;;;;21.45;54.02;100373.59;1720131;82;20932;-42
2021/05/02 11:17:09;;;;;;;2.52;2.30;;;;;;;21.45;53.46;100369.64;1746784;82;21002;-42
2021/05/02 11:19:39;;;;;;;5.80;2.27;;;;;;;21.43;53.32;100374.16;1743789;82;21057;-43
2021/05/02 11:22:08;;;;;;;5.65;2.50;;;;;;;21.47;53.89;100370.38;1732301;82;21011;-42
2021/05/02 11:24:47;;;;;;;3.92;2.10;;;;;;;21.51;53.56;100362.64;1719757;82;21643;-43
2021/05/02 11:30:10;;;;;;;3.25;1.92;;;;;;;21.60;53.21;100348.48;1710126;82;22599;-43
2021/05/02 11:32:37;;;;;;;3.75;2.05;;;;;;;21.72;53.54;100343.77;1742465;82;21050;-42
2021/05/02 11:35:08;;;;;;;7.53;2.25;;;;;;;21.82;53.53;100344.81;1650087;85;21594;-42
2021/05/02 11:38:05;;;;;;;2.50;2.30;;;;;;;21.81;53.02;100344.94;1664623;85;21008;-43
2021/05/02 11:40:36;;;;;;;3.58;2.08;;;;;;;21.77;52.83;100339.02;1650415;85;20959;-42
2021/05/02 11:43:25;;;;;;;3.47;2.08;;;;;;;21.75;53.23;100336.14;1665704;85;21633;-43